createdAt,value
2018-09-24T00:00:13.099Z,102827.52
2018-09-24T00:02:42.695Z,102835.08
2018-09-24T00:05:11.483Z,102842.34
2018-09-24T00:07:41.273Z,102847.73
2018-09-24T00:10:10.910Z,102855.48
2018-09-24T00:12:40.701Z,102865.52
2018-09-24T00:15:10.234Z,102872.67
2018-09-24T00:17:39.013Z,102884.84
2018-09-24T00:20:08.982Z,102886.75
2018-09-24T00:22:37.509Z,102889.00
2018-09-24T00:25:06.427Z,102892.61
2018-09-24T00:27:35.192Z,102897.55
2018-09-24T00:30:04.198Z,102913.72
2018-09-24T00:32:34.911Z,102924.63
2018-09-24T00:35:04.463Z,102922.12
2018-09-24T00:37:33.959Z,102923.45
2018-09-24T00:40:02.988Z,102929.94
2018-09-24T00:42:33.321Z,102929.13
2018-09-24T00:45:02.162Z,102936.22
2018-09-24T00:47:32.156Z,102942.33
2018-09-24T00:50:01.163Z,102943.36
2018-09-24T00:52:31.032Z,102948.95
2018-09-24T00:54:59.989Z,102947.34
2018-09-24T00:57:29.095Z,102961.28
2018-09-24T00:59:58.757Z,102962.50
2018-09-24T01:02:27.538Z,102969.91
2018-09-24T01:04:56.566Z,102971.27
2018-09-24T01:07:25.476Z,102969.98
2018-09-24T01:09:54.199Z,102973.19
2018-09-24T01:12:22.973Z,102854.84
2018-09-24T01:14:52.003Z,102985.87
2018-09-24T01:17:22.043Z,102993.85
2018-09-24T01:19:50.899Z,102987.43
2018-09-24T01:22:19.370Z,102984.31
2018-09-24T01:24:49.646Z,102989.20
2018-09-24T01:27:18.970Z,102984.12
2018-09-24T01:29:47.992Z,102990.77
2018-09-24T01:32:17.432Z,102994.59
2018-09-24T01:34:46.291Z,103000.13
2018-09-24T01:37:15.320Z,103000.95
2018-09-24T01:39:44.797Z,103008.50
2018-09-24T01:42:13.760Z,103010.69
2018-09-24T01:44:43.322Z,103012.42
2018-09-24T01:47:12.771Z,103011.97
2018-09-24T01:49:42.363Z,103009.73
2018-09-24T01:52:11.419Z,103021.91
2018-09-24T01:54:41.581Z,103012.64
2018-09-24T01:57:17.132Z,103018.55
2018-09-24T01:59:54.559Z,103018.94
2018-09-24T02:02:23.792Z,103024.24
2018-09-24T02:04:52.607Z,103021.70
2018-09-24T02:07:21.334Z,103023.05
2018-09-24T02:09:50.140Z,103017.77
2018-09-24T02:12:19.204Z,103022.13
2018-09-24T02:14:47.974Z,103032.25
2018-09-24T02:17:20.796Z,103028.78
2018-09-24T02:19:50.920Z,103033.34
2018-09-24T02:22:28.227Z,103034.80
2018-09-24T02:24:58.725Z,103040.06
2018-09-24T02:27:28.433Z,103038.36
2018-09-24T02:29:58.295Z,103034.02
2018-09-24T02:32:27.163Z,103040.95
2018-09-24T02:34:57.373Z,103041.48
2018-09-24T02:37:26.182Z,103045.45
2018-09-24T02:39:55.265Z,103047.67
2018-09-24T02:42:24.160Z,103054.23
2018-09-24T02:44:58.267Z,103059.08
2018-09-24T02:47:33.959Z,103063.04
2018-09-24T02:50:03.088Z,103073.97
2018-09-24T02:52:33.088Z,103083.58
2018-09-24T02:55:03.612Z,103083.05
2018-09-24T02:57:33.160Z,103109.52
2018-09-24T03:00:02.617Z,103100.66
2018-09-24T03:02:33.924Z,103117.55
2018-09-24T03:05:03.454Z,103117.35
2018-09-24T03:07:33.716Z,103125.52
2018-09-24T03:10:03.099Z,103132.20
2018-09-24T03:12:32.239Z,103138.37
2018-09-24T03:15:02.297Z,103021.05
2018-09-24T03:17:31.901Z,103136.45
2018-09-24T03:20:01.757Z,103148.08
2018-09-24T03:22:32.394Z,103133.55
2018-09-24T03:25:01.468Z,103125.18
2018-09-24T03:27:32.303Z,103128.04
2018-09-24T03:30:01.769Z,103131.65
2018-09-24T03:32:32.564Z,103125.22
2018-09-24T03:35:03.598Z,103129.14
2018-09-24T03:37:34.603Z,103129.59
2018-09-24T03:40:04.968Z,103041.50
2018-09-24T03:42:35.006Z,103141.16
2018-09-24T03:45:04.597Z,103153.48
2018-09-24T03:47:34.813Z,103153.42
2018-09-24T03:50:03.716Z,103151.09
2018-09-24T03:52:32.708Z,103166.24
2018-09-24T03:55:03.554Z,103168.01
2018-09-24T03:57:33.173Z,103165.02
2018-09-24T04:00:03.153Z,103168.55
2018-09-24T04:02:35.225Z,103163.30
2018-09-24T04:05:10.922Z,103166.92
2018-09-24T04:07:46.849Z,103167.79
2018-09-24T04:10:22.559Z,103180.55
2018-09-24T04:13:00.223Z,103185.72
2018-09-24T04:15:35.679Z,103187.11
2018-09-24T04:18:11.519Z,103193.17
2018-09-24T04:20:46.774Z,103193.64
2018-09-24T04:23:21.455Z,103205.80
2018-09-24T04:25:58.025Z,103213.05
2018-09-24T04:28:34.181Z,103208.48
2018-09-24T04:31:11.850Z,103217.70
2018-09-24T04:33:47.737Z,103232.00
2018-09-24T04:36:22.709Z,103239.75
2018-09-24T04:38:57.927Z,103235.86
2018-09-24T04:41:32.549Z,103219.47
2018-09-24T04:44:08.230Z,103213.94
2018-09-24T04:46:44.260Z,103217.17
2018-09-24T04:49:19.535Z,103216.63
2018-09-24T04:51:54.594Z,103222.77
2018-09-24T04:54:30.503Z,103227.03
2018-09-24T04:57:05.342Z,103229.56
2018-09-24T04:59:39.686Z,103239.97
2018-09-24T05:02:14.346Z,103245.33
2018-09-24T05:04:49.196Z,103242.73
2018-09-24T05:07:23.430Z,103243.46
2018-09-24T05:09:58.825Z,103242.12
2018-09-24T05:12:33.172Z,103251.70
2018-09-24T05:15:07.382Z,103256.48
2018-09-24T05:17:42.047Z,103265.27
2018-09-24T05:20:16.542Z,103272.58
2018-09-24T05:22:50.790Z,103269.36
2018-09-24T05:25:25.911Z,103258.55
2018-09-24T05:28:01.181Z,103250.95
2018-09-24T05:30:37.459Z,103249.96
2018-09-24T05:33:12.254Z,103239.45
2018-09-24T05:35:47.554Z,103240.30
2018-09-24T05:38:22.181Z,103246.45
2018-09-24T05:40:56.821Z,103246.08
2018-09-24T05:43:31.668Z,103251.41
2018-09-24T05:46:06.595Z,103251.79
2018-09-24T05:48:42.940Z,103242.66
2018-09-24T05:51:17.416Z,103247.98
2018-09-24T05:53:52.795Z,103253.66
2018-09-24T05:56:27.252Z,103253.75
2018-09-24T05:59:01.629Z,103250.27
2018-09-24T06:01:36.293Z,103263.33
2018-09-24T06:04:10.849Z,103265.61
2018-09-24T06:06:45.640Z,103270.37
2018-09-24T06:09:20.773Z,103275.16
2018-09-24T06:11:55.438Z,103286.90
2018-09-24T06:14:30.019Z,103286.46
2018-09-24T06:17:04.779Z,103290.80
2018-09-24T06:19:39.388Z,103305.65
2018-09-24T06:22:15.038Z,103302.62
2018-09-24T06:24:49.597Z,103315.20
2018-09-24T06:27:23.910Z,103333.41
2018-09-24T06:29:58.202Z,103344.13
2018-09-24T06:32:32.615Z,103350.94
2018-09-24T06:35:07.934Z,103372.10
2018-09-24T06:37:43.440Z,103358.59
2018-09-24T06:40:18.481Z,103339.02
2018-09-24T06:42:53.734Z,103352.33
2018-09-24T06:45:28.907Z,103356.59
2018-09-24T06:48:03.514Z,103364.73
2018-09-24T06:50:37.939Z,103369.63
2018-09-24T06:53:12.505Z,103369.95
2018-09-24T06:55:47.127Z,103371.72
2018-09-24T06:58:21.783Z,103376.66
2018-09-24T07:00:56.565Z,103380.62
2018-09-24T07:03:31.053Z,103378.24
2018-09-24T07:06:05.622Z,103381.25
2018-09-24T07:08:40.163Z,103383.27
2018-09-24T07:11:16.747Z,103394.67
2018-09-24T07:13:51.325Z,103399.06
2018-09-24T07:16:25.625Z,103402.40
2018-09-24T07:19:00.142Z,103397.95
2018-09-24T07:21:35.505Z,103401.17
2018-09-24T07:24:10.029Z,103410.19
2018-09-24T07:26:44.759Z,103407.34
2018-09-24T07:29:19.381Z,103407.39
2018-09-24T07:31:53.877Z,103407.70
2018-09-24T07:34:28.394Z,103404.27
2018-09-24T07:37:02.581Z,103414.92
2018-09-24T07:39:36.859Z,103422.98
2018-09-24T07:42:11.331Z,103420.70
2018-09-24T07:44:45.774Z,103427.06
2018-09-24T07:47:19.991Z,103429.44
2018-09-24T07:49:54.421Z,103438.57
2018-09-24T07:52:28.622Z,103446.47
2018-09-24T07:55:03.144Z,103450.05
2018-09-24T07:57:37.467Z,103458.31
2018-09-24T08:00:11.979Z,103457.95
2018-09-24T08:02:48.227Z,103459.23
2018-09-24T08:05:23.172Z,103459.86
2018-09-24T08:07:58.912Z,103470.59
2018-09-24T08:10:33.473Z,103463.67
2018-09-24T08:13:08.083Z,103459.08
2018-09-24T08:15:42.732Z,103459.45
2018-09-24T08:18:17.407Z,103460.45
2018-09-24T08:20:52.010Z,103455.03
2018-09-24T08:27:04.156Z,103458.22
2018-09-24T08:29:54.152Z,103463.19
2018-09-24T08:32:28.319Z,103474.48
2018-09-24T08:35:02.812Z,103477.89
2018-09-24T08:37:38.299Z,103473.87
2018-09-24T08:40:12.981Z,103477.51
2018-09-24T08:42:47.442Z,103483.98
2018-09-24T08:45:23.045Z,103488.47
2018-09-24T08:47:57.387Z,103488.86
2018-09-24T08:50:31.703Z,103490.03
2018-09-24T08:53:06.093Z,103503.36
2018-09-24T08:55:40.764Z,103504.85
2018-09-24T08:58:16.134Z,103523.23
2018-09-24T09:00:50.422Z,103521.15
2018-09-24T09:03:27.501Z,103518.06
2018-09-24T09:30:37.970Z,103531.02
2018-09-24T09:33:15.229Z,103531.86
2018-09-24T09:35:51.801Z,103543.81
2018-09-24T09:38:27.200Z,103547.57
2018-09-24T09:41:04.868Z,103545.05
2018-09-24T09:48:40.269Z,103537.84
2018-09-24T09:51:14.765Z,103540.34
2018-09-24T09:53:51.520Z,103532.94
2018-09-24T09:56:26.593Z,103532.38
2018-09-24T09:59:01.182Z,103544.30
2018-09-24T10:01:43.597Z,103548.30
2018-09-24T10:04:19.877Z,103542.88
2018-09-24T10:06:55.008Z,103544.35
2018-09-24T10:09:30.371Z,103534.87
2018-09-24T10:25:14.256Z,103551.69
2018-09-24T10:27:48.509Z,103546.66
2018-09-24T10:30:23.100Z,103553.95
2018-09-24T10:32:57.500Z,103563.79
2018-09-24T10:35:32.527Z,103565.53
2018-09-24T10:38:06.810Z,103560.94
2018-09-24T10:40:41.712Z,103566.25
2018-09-24T10:43:16.113Z,103569.67
2018-09-24T10:45:50.785Z,103570.16
2018-09-24T10:48:25.136Z,103577.48
2018-09-24T10:51:00.025Z,103582.45
2018-09-24T10:53:35.635Z,103590.19
2018-09-24T10:56:11.125Z,103581.22
2018-09-24T10:58:45.727Z,103578.51
2018-09-24T11:01:20.199Z,103580.50
2018-09-24T11:04:11.789Z,103577.54
2018-09-24T11:06:46.175Z,103576.48
2018-09-24T11:09:21.922Z,103579.66
2018-09-24T11:11:56.538Z,103578.49
2018-09-24T11:14:42.038Z,103582.58
2018-09-24T11:17:21.541Z,103577.16
2018-09-24T11:20:05.406Z,103593.48
2018-09-24T11:22:40.543Z,103613.19
2018-09-24T11:25:15.727Z,103606.92
2018-09-24T11:27:50.172Z,103605.52
2018-09-24T11:30:24.820Z,103608.71
2018-09-24T11:32:59.315Z,103607.81
2018-09-24T11:35:34.067Z,103610.34
2018-09-24T11:38:09.152Z,103609.91
2018-09-24T11:40:44.074Z,103605.63
2018-09-24T11:43:19.108Z,103605.02
2018-09-24T11:45:53.655Z,103601.48
2018-09-24T11:48:27.975Z,103599.45
2018-09-24T11:51:02.311Z,103598.36
2018-09-24T11:53:36.619Z,103595.95
2018-09-24T11:56:11.209Z,103601.77
2018-09-24T11:58:45.789Z,103594.46
2018-09-24T12:01:20.027Z,103584.90
2018-09-24T12:03:54.521Z,103588.55
2018-09-24T12:06:30.025Z,103586.30
2018-09-24T12:09:05.138Z,103586.23
2018-09-24T12:11:41.110Z,103584.08
2018-09-24T12:14:16.983Z,103583.44
2018-09-24T12:16:52.517Z,103580.50
2018-09-24T12:19:26.951Z,103579.34
2018-09-24T12:22:01.344Z,103578.95
2018-09-24T12:24:35.629Z,103586.63
2018-09-24T12:27:10.076Z,103579.47
2018-09-24T12:29:44.304Z,103588.08
2018-09-24T12:32:18.645Z,103582.96
2018-09-24T12:34:52.935Z,103574.52
2018-09-24T12:37:27.657Z,103577.47
2018-09-24T12:40:02.026Z,103574.62
2018-09-24T12:42:36.450Z,103573.38
2018-09-24T12:45:10.723Z,103580.03
2018-09-24T12:47:45.098Z,103586.58
2018-09-24T12:50:20.445Z,103586.56
2018-09-24T12:52:55.941Z,103598.73
2018-09-24T12:55:30.399Z,103592.23
2018-09-24T12:58:04.831Z,103598.48
2018-09-24T13:00:39.324Z,103591.66
2018-09-24T13:03:13.897Z,103594.39
2018-09-24T13:05:48.516Z,103595.80
2018-09-24T13:08:23.739Z,103607.13
2018-09-24T13:10:58.861Z,103603.00
2018-09-24T13:13:33.292Z,103605.11
2018-09-24T13:16:07.409Z,103603.05
2018-09-24T13:18:41.943Z,103608.61
2018-09-24T13:21:16.417Z,103616.16
2018-09-24T13:23:50.700Z,103612.87
2018-09-24T13:26:25.222Z,103615.70
2018-09-24T13:29:00.416Z,103610.59
2018-09-24T13:31:34.707Z,103618.84
2018-09-24T13:34:09.208Z,103604.50
2018-09-24T13:36:43.111Z,103614.26
2018-09-24T13:39:17.691Z,103611.78
2018-09-24T13:41:51.908Z,103608.66
2018-09-24T13:44:26.201Z,103605.69
2018-09-24T13:47:00.393Z,103604.03
2018-09-24T13:49:34.836Z,103610.42
2018-09-24T13:52:09.190Z,103608.73
2018-09-24T13:54:43.617Z,103603.05
2018-09-24T13:57:18.027Z,103602.52
2018-09-24T13:59:52.622Z,103610.73
2018-09-24T14:02:26.977Z,103621.66
2018-09-24T14:05:01.252Z,103625.73
2018-09-24T14:07:36.853Z,103620.38
2018-09-24T14:10:11.677Z,103624.88
2018-09-24T14:12:46.175Z,103627.78
2018-09-24T14:15:20.758Z,103627.53
2018-09-24T14:17:55.007Z,103622.23
2018-09-24T14:20:29.387Z,103626.34
2018-09-24T14:23:04.112Z,103626.48
2018-09-24T14:25:38.340Z,103623.18
2018-09-24T14:28:12.829Z,103624.33
2018-09-24T14:30:48.378Z,103618.22
2018-09-24T14:33:23.191Z,103622.05
2018-09-24T14:35:57.738Z,103620.29
2018-09-24T14:38:33.136Z,103627.75
2018-09-24T14:41:08.207Z,103630.03
2018-09-24T14:43:42.569Z,103631.89
2018-09-24T14:48:54.866Z,103634.72
2018-09-24T14:51:32.070Z,103637.45
2018-09-24T14:54:06.435Z,103631.86
2018-09-24T14:59:20.712Z,103632.82
2018-09-24T15:01:55.058Z,103641.95
2018-09-24T15:04:29.383Z,103642.44
2018-09-24T15:07:03.643Z,103631.64
2018-09-24T15:09:38.708Z,103636.61
2018-09-24T15:12:13.037Z,103633.95
2018-09-24T15:14:47.423Z,103627.80
2018-09-24T15:17:21.847Z,103637.88
2018-09-24T15:19:57.511Z,103641.62
2018-09-24T15:22:31.831Z,103642.94
2018-09-24T15:25:06.493Z,103644.91
2018-09-24T15:27:40.848Z,103643.25
2018-09-24T15:30:15.135Z,103640.73
2018-09-24T15:32:49.807Z,103633.75
2018-09-24T15:35:24.638Z,103634.02
2018-09-24T15:37:59.479Z,103634.83
2018-09-24T15:40:33.989Z,103635.98
2018-09-24T15:43:08.398Z,103640.98
2018-09-24T15:45:42.848Z,103636.13
2018-09-24T15:48:17.701Z,103637.31
2018-09-24T15:50:52.134Z,103639.98
2018-09-24T15:53:27.143Z,103639.93
2018-09-24T15:56:01.620Z,103635.73
2018-09-24T15:58:36.116Z,103638.00
2018-09-24T16:01:10.536Z,103637.30
2018-09-24T16:03:44.997Z,103640.00
2018-09-24T16:06:19.399Z,103643.70
2018-09-24T16:08:53.796Z,103643.05
2018-09-24T16:11:28.263Z,103636.28
2018-09-24T16:14:02.711Z,103637.92
2018-09-24T16:16:36.860Z,103649.20
2018-09-24T16:19:11.806Z,103649.41
2018-09-24T16:21:46.512Z,103651.33
2018-09-24T16:24:20.747Z,103653.83
2018-09-24T16:26:55.068Z,103653.02
2018-09-24T16:29:29.391Z,103660.09
2018-09-24T16:32:03.746Z,103655.73
2018-09-24T16:34:38.089Z,103652.86
2018-09-24T16:37:12.544Z,103654.64
2018-09-24T16:39:46.820Z,103659.23
2018-09-24T16:42:21.213Z,103661.06
2018-09-24T16:44:55.788Z,103661.27
2018-09-24T16:47:30.948Z,103664.71
2018-09-24T16:50:05.347Z,103664.95
2018-09-24T16:52:40.680Z,103660.66
2018-09-24T16:55:14.944Z,103667.48
2018-09-24T16:57:49.404Z,103665.38
2018-09-24T17:00:25.123Z,103670.84
2018-09-24T17:03:00.251Z,103664.38
2018-09-24T17:05:34.714Z,103676.34
2018-09-24T17:08:09.066Z,103683.64
2018-09-24T17:10:44.726Z,103680.55
2018-09-24T17:13:19.244Z,103686.45
2018-09-24T17:15:53.654Z,103684.02
2018-09-24T17:18:28.222Z,103687.20
2018-09-24T17:21:02.414Z,103684.27
2018-09-24T17:23:36.688Z,103690.68
2018-09-24T17:26:12.582Z,103696.67
2018-09-24T17:28:47.057Z,103686.80
2018-09-24T17:31:21.630Z,103697.09
2018-09-24T17:33:56.027Z,103697.58
2018-09-24T17:36:30.202Z,103692.38
2018-09-24T17:39:04.628Z,103695.28
2018-09-24T17:41:39.062Z,103694.73
2018-09-24T17:44:13.603Z,103699.59
2018-09-24T17:46:49.425Z,103699.93
2018-09-24T17:49:24.492Z,103704.91
2018-09-24T17:51:59.063Z,103704.64
2018-09-24T17:54:33.748Z,103706.02
2018-09-24T17:57:08.968Z,103705.22
2018-09-24T17:59:45.103Z,103705.11
2018-09-24T18:02:19.903Z,103699.34
2018-09-24T18:04:55.369Z,103713.94
2018-09-24T18:07:29.852Z,103718.04
2018-09-24T18:10:04.372Z,103716.41
2018-09-24T18:12:39.353Z,103720.05
2018-09-24T18:15:14.436Z,103725.38
2018-09-24T18:17:49.490Z,103732.78
2018-09-24T18:20:23.816Z,103733.78
2018-09-24T18:23:00.320Z,103739.98
2018-09-24T18:25:35.630Z,103740.59
2018-09-24T18:28:11.336Z,103741.09
2018-09-24T18:30:46.965Z,103728.96
2018-09-24T18:33:21.859Z,103736.43
2018-09-24T18:35:58.139Z,103743.03
2018-09-24T18:38:32.726Z,103743.95
2018-09-24T18:41:07.230Z,103742.32
2018-09-24T18:43:42.269Z,103744.59
2018-09-24T18:46:16.621Z,103755.63
2018-09-24T18:48:50.910Z,103750.91
2018-09-24T18:51:26.269Z,103756.20
2018-09-24T18:54:04.433Z,103756.78
2018-09-24T18:56:40.338Z,103751.53
2018-09-24T18:59:16.753Z,103755.04
2018-09-24T19:01:51.561Z,103757.74
2018-09-24T19:04:26.121Z,103767.85
2018-09-24T19:07:02.969Z,103764.84
2018-09-24T19:09:38.458Z,103768.39
2018-09-24T19:12:13.031Z,103774.98
2018-09-24T19:14:48.712Z,103781.52
2018-09-24T19:17:23.237Z,103782.04
2018-09-24T19:19:58.241Z,103787.31
2018-09-24T19:22:35.472Z,103787.81
2018-09-24T19:25:09.968Z,103792.17
2018-09-24T19:27:44.575Z,103789.11
2018-09-24T19:30:19.041Z,103793.08
2018-09-24T19:32:54.515Z,103796.98
2018-09-24T19:35:29.170Z,103799.59
2018-09-24T19:38:03.130Z,103809.59
2018-09-24T19:40:38.611Z,103812.22
2018-09-24T19:43:15.746Z,103815.67
2018-09-24T19:45:50.127Z,103811.91
2018-09-24T19:48:24.502Z,103803.27
2018-09-24T19:51:01.494Z,103810.09
2018-09-24T19:53:36.531Z,103818.25
2018-09-24T19:56:10.927Z,103807.70
2018-09-24T19:58:45.524Z,103811.95
2018-09-24T20:01:20.033Z,103813.20
2018-09-24T20:03:55.223Z,103812.20
2018-09-24T20:06:29.764Z,103814.45
2018-09-24T20:09:04.403Z,103819.69
2018-09-24T20:11:38.783Z,103823.17
2018-09-24T20:14:13.451Z,103827.13
2018-09-24T20:16:47.867Z,103826.30
2018-09-24T20:19:22.538Z,103827.23
2018-09-24T20:21:56.488Z,103826.44
2018-09-24T20:24:31.613Z,103826.11
2018-09-24T20:27:06.123Z,103833.94
2018-09-24T20:29:40.642Z,103829.59
2018-09-24T20:32:15.256Z,103829.20
2018-09-24T20:34:50.116Z,103829.69
2018-09-24T20:37:24.760Z,103828.84
2018-09-24T20:40:00.751Z,103828.86
2018-09-24T20:42:39.127Z,103835.05
2018-09-24T20:45:14.331Z,103840.72
2018-09-24T20:47:48.779Z,103840.73
2018-09-24T20:50:23.428Z,103846.45
2018-09-24T20:52:57.947Z,103844.27
2018-09-24T20:55:32.574Z,103846.89
2018-09-24T20:58:07.106Z,103852.58
2018-09-24T21:00:41.593Z,103846.52
2018-09-24T21:03:18.919Z,103857.02
2018-09-24T21:05:53.768Z,103858.36
2018-09-24T21:08:29.309Z,103870.61
2018-09-24T21:11:04.751Z,103861.88
2018-09-24T21:13:41.035Z,103860.60
2018-09-24T21:16:15.710Z,103869.33
2018-09-24T21:18:50.516Z,103870.66
2018-09-24T21:21:26.095Z,103874.98
2018-09-24T21:24:02.452Z,103871.54
2018-09-24T21:26:36.910Z,103878.09
2018-09-24T21:29:12.741Z,103885.05
2018-09-24T21:31:47.388Z,103883.33
2018-09-24T21:34:22.302Z,103886.80
2018-09-24T21:36:56.752Z,103890.33
2018-09-24T21:39:31.606Z,103896.41
2018-09-24T21:42:06.113Z,103889.45
2018-09-24T21:44:41.318Z,103890.30
2018-09-24T21:47:15.881Z,103906.92
2018-09-24T21:49:51.114Z,103905.19
2018-09-24T21:52:26.883Z,103902.55
2018-09-24T21:55:01.704Z,103899.94
2018-09-24T21:57:36.483Z,103902.55
2018-09-24T22:00:12.613Z,103910.86
2018-09-24T22:02:48.084Z,103910.41
2018-09-24T22:05:22.863Z,103911.27
2018-09-24T22:07:57.829Z,103913.02
2018-09-24T22:10:33.715Z,103913.00
2018-09-24T22:13:09.031Z,103913.88
2018-09-24T22:15:43.554Z,103916.08
2018-09-24T22:20:58.244Z,103915.23
2018-09-24T22:23:33.056Z,103919.59
2018-09-24T22:26:07.681Z,103918.26
2018-09-24T22:28:43.069Z,103910.43
2018-09-24T22:31:17.847Z,103915.63
2018-09-24T22:33:54.669Z,103919.54
2018-09-24T22:36:31.016Z,103909.48
2018-09-24T22:39:07.838Z,103915.61
2018-09-24T22:41:43.691Z,103912.13
2018-09-24T22:44:19.667Z,103918.25
2018-09-24T22:46:54.874Z,103920.87
2018-09-24T22:49:29.322Z,103919.98
2018-09-24T22:52:04.130Z,103910.80
2018-09-24T22:54:38.747Z,103910.35
2018-09-24T22:57:13.693Z,103908.20
2018-09-24T22:59:49.416Z,103908.20
2018-09-24T23:02:24.006Z,103909.11
2018-09-24T23:04:58.406Z,103903.00
2018-09-24T23:07:32.795Z,103903.01
2018-09-24T23:10:07.934Z,103899.51
2018-09-24T23:12:43.392Z,103898.63
2018-09-24T23:15:18.434Z,103901.27
2018-09-24T23:17:53.671Z,103903.45
2018-09-24T23:20:29.445Z,103910.43
2018-09-24T23:23:04.189Z,103908.25
2018-09-24T23:25:38.913Z,103909.98
2018-09-24T23:28:13.531Z,103909.97
2018-09-24T23:30:48.112Z,103908.23
2018-09-24T23:33:23.085Z,103916.08
2018-09-24T23:35:57.764Z,103913.02
2018-09-24T23:38:32.476Z,103911.27
2018-09-24T23:41:07.697Z,103906.05
2018-09-24T23:43:42.291Z,103906.48
2018-09-24T23:46:16.871Z,103909.08
2018-09-24T23:48:54.434Z,103913.89
2018-09-24T23:51:29.827Z,103916.92
2018-09-24T23:54:04.350Z,103913.84
2018-09-24T23:56:39.755Z,103909.50
2018-09-24T23:59:15.075Z,103919.52
